createdAt,value
2023-05-19T00:01:00.495Z,8.73
2023-05-19T00:03:29.153Z,8.98
2023-05-19T00:05:57.383Z,12.20
2023-05-19T00:08:25.668Z,9.40
2023-05-19T00:10:55.798Z,9.05
2023-05-19T00:13:24.209Z,8.85
2023-05-19T00:15:52.772Z,9.05
2023-05-19T00:18:21.072Z,9.65
2023-05-19T00:20:49.159Z,6.50
2023-05-19T00:23:17.248Z,7.55
2023-05-19T00:25:45.388Z,6.97
2023-05-19T00:28:14.862Z,9.35
2023-05-19T00:30:42.956Z,6.50
2023-05-19T00:33:11.336Z,7.43
2023-05-19T00:35:40.694Z,7.85
2023-05-19T00:38:08.775Z,7.53
2023-05-19T00:40:36.981Z,7.45
2023-05-19T00:43:05.975Z,6.97
2023-05-19T00:45:35.427Z,6.90
2023-05-19T00:48:03.542Z,8.05
2023-05-19T00:50:31.898Z,7.88
2023-05-19T00:53:00.125Z,7.75
2023-05-19T00:55:29.247Z,5.57
2023-05-19T00:57:57.687Z,9.18
2023-05-19T01:00:25.768Z,6.53
2023-05-19T01:02:56.147Z,6.85
2023-05-19T01:05:24.338Z,6.10
2023-05-19T01:07:53.688Z,8.52
2023-05-19T01:10:22.154Z,7.47
2023-05-19T01:12:50.287Z,6.68
2023-05-19T01:15:18.577Z,9.88
2023-05-19T01:17:55.679Z,6.78
2023-05-19T01:20:29.264Z,7.38
2023-05-19T01:23:19.428Z,7.38
2023-05-19T01:26:19.392Z,7.50
2023-05-19T01:29:00.885Z,8.07
2023-05-19T01:31:30.363Z,6.60
2023-05-19T01:33:58.468Z,9.07
2023-05-19T01:36:26.551Z,6.63
2023-05-19T01:38:58.984Z,11.98
2023-05-19T01:41:28.516Z,5.22
2023-05-19T01:43:56.635Z,7.93
2023-05-19T01:46:24.967Z,9.38
2023-05-19T01:48:54.565Z,9.18
2023-05-19T01:51:22.656Z,10.02
2023-05-19T01:53:50.765Z,5.65
2023-05-19T01:56:21.601Z,6.03
2023-05-19T01:58:52.158Z,9.13
2023-05-19T02:01:30.016Z,11.48
2023-05-19T02:04:07.202Z,6.70
2023-05-19T02:06:40.813Z,6.88
2023-05-19T02:09:12.939Z,7.47
2023-05-19T02:11:42.450Z,6.03
2023-05-19T02:14:21.174Z,10.85
2023-05-19T02:16:49.798Z,9.88
2023-05-19T02:19:27.501Z,7.68
2023-05-19T02:21:56.396Z,10.63
2023-05-19T02:24:24.466Z,9.93
2023-05-19T02:26:52.849Z,10.02
2023-05-19T02:29:20.936Z,6.72
2023-05-19T02:31:49.038Z,10.20
2023-05-19T02:34:17.169Z,6.05
2023-05-19T02:36:49.893Z,5.70
2023-05-19T02:39:17.964Z,6.03
2023-05-19T02:41:46.066Z,10.60
2023-05-19T02:44:14.170Z,7.80
2023-05-19T02:46:42.338Z,10.90
2023-05-19T02:49:11.266Z,6.57
2023-05-19T02:51:39.319Z,7.47
2023-05-19T02:54:08.781Z,7.90
2023-05-19T02:56:36.866Z,7.63
2023-05-19T02:59:04.925Z,9.07
2023-05-19T03:01:33.827Z,5.97
2023-05-19T03:04:02.301Z,7.18
2023-05-19T03:06:32.836Z,6.65
2023-05-19T03:09:00.903Z,9.68
2023-05-19T03:11:31.017Z,7.85
2023-05-19T03:13:59.467Z,6.80
2023-05-19T03:16:28.154Z,7.63
2023-05-19T03:18:56.786Z,8.10
2023-05-19T03:21:24.843Z,9.85
2023-05-19T03:23:52.964Z,12.20
2023-05-19T03:26:23.000Z,7.65
2023-05-19T03:28:52.474Z,6.03
2023-05-19T03:31:20.502Z,8.27
2023-05-19T03:33:48.590Z,7.25
2023-05-19T03:36:17.528Z,9.90
2023-05-19T03:38:45.694Z,17.45
2023-05-19T03:41:13.783Z,9.32
2023-05-19T03:43:42.038Z,7.13
2023-05-19T03:46:11.510Z,7.75
2023-05-19T03:48:39.593Z,8.98
2023-05-19T03:51:09.110Z,6.30
2023-05-19T03:53:38.050Z,7.47
2023-05-19T03:56:07.596Z,9.63
2023-05-19T03:58:37.052Z,10.95
2023-05-19T04:01:05.161Z,10.18
2023-05-19T04:03:34.700Z,8.50
2023-05-19T04:06:02.929Z,5.07
2023-05-19T04:08:31.092Z,7.95
2023-05-19T04:10:59.172Z,6.00
2023-05-19T04:13:27.243Z,8.25
2023-05-19T04:15:55.351Z,8.80
2023-05-19T04:18:23.522Z,7.40
2023-05-19T04:20:53.008Z,5.85
2023-05-19T04:23:21.084Z,6.30
2023-05-19T04:25:49.575Z,8.52
2023-05-19T04:28:17.990Z,11.05
2023-05-19T04:30:46.779Z,7.07
2023-05-19T04:33:15.080Z,6.57
2023-05-19T04:35:43.896Z,10.60
2023-05-19T04:38:13.763Z,5.65
2023-05-19T04:40:43.217Z,15.23
2023-05-19T04:43:11.414Z,5.82
2023-05-19T04:45:42.870Z,9.65
2023-05-19T04:48:12.284Z,7.25
2023-05-19T04:50:42.283Z,7.72
2023-05-19T04:53:11.495Z,10.38
2023-05-19T04:55:41.176Z,6.95
2023-05-19T04:58:09.372Z,8.43
2023-05-19T05:00:38.333Z,5.65
2023-05-19T05:03:07.235Z,6.88
2023-05-19T05:05:35.899Z,13.80
2023-05-19T05:08:04.405Z,5.90
2023-05-19T05:10:32.685Z,7.95
2023-05-19T05:13:03.040Z,11.55
2023-05-19T05:15:31.848Z,9.20
2023-05-19T05:18:00.587Z,6.55
2023-05-19T05:20:29.494Z,6.22
2023-05-19T05:22:58.247Z,8.23
2023-05-19T05:25:27.056Z,10.20
2023-05-19T05:27:55.147Z,7.70
2023-05-19T05:30:24.782Z,6.43
2023-05-19T05:32:52.959Z,10.40
2023-05-19T05:35:22.384Z,9.30
2023-05-19T05:37:50.520Z,6.45
2023-05-19T05:40:19.049Z,9.98
2023-05-19T05:42:47.357Z,5.95
2023-05-19T05:45:15.576Z,9.10
2023-05-19T05:47:45.738Z,5.03
2023-05-19T05:50:15.031Z,11.73
2023-05-19T05:52:43.625Z,8.73
2023-05-19T05:55:13.199Z,10.45
2023-05-19T05:57:41.977Z,8.35
2023-05-19T06:00:15.585Z,6.32
2023-05-19T06:02:47.405Z,10.63
2023-05-19T06:05:15.792Z,7.40
2023-05-19T06:07:44.128Z,9.43
2023-05-19T06:10:12.484Z,9.38
2023-05-19T06:12:42.622Z,12.50
2023-05-19T06:15:11.159Z,8.65
2023-05-19T06:17:39.491Z,10.23
2023-05-19T06:20:10.336Z,7.78
2023-05-19T06:22:38.421Z,13.77
2023-05-19T06:25:09.022Z,8.07
2023-05-19T06:27:37.177Z,6.35
2023-05-19T06:30:06.456Z,4.72
2023-05-19T06:32:34.830Z,10.18
2023-05-19T06:35:03.015Z,5.13
2023-05-19T06:37:32.516Z,5.78
2023-05-19T06:40:00.688Z,7.07
2023-05-19T06:42:28.909Z,9.30
2023-05-19T06:44:57.014Z,7.70
2023-05-19T06:47:25.219Z,10.18
2023-05-19T06:49:55.509Z,11.45
2023-05-19T06:52:24.991Z,7.75
2023-05-19T06:54:54.586Z,10.63
2023-05-19T06:57:22.750Z,4.40
2023-05-19T06:59:51.986Z,9.18
2023-05-19T07:02:21.898Z,6.70
2023-05-19T07:04:51.501Z,8.73
2023-05-19T07:07:20.705Z,7.40
2023-05-19T07:09:49.238Z,8.63
2023-05-19T07:12:32.579Z,7.25
2023-05-19T07:15:22.110Z,5.28
2023-05-19T07:18:03.441Z,16.17
2023-05-19T07:21:17.928Z,8.48
2023-05-19T07:23:51.233Z,5.38
2023-05-19T07:26:22.843Z,6.70
2023-05-19T07:28:52.432Z,11.70
2023-05-19T07:31:20.587Z,8.10
2023-05-19T07:33:48.847Z,8.30
2023-05-19T07:36:17.105Z,9.57
2023-05-19T07:38:46.722Z,11.65
2023-05-19T07:41:14.831Z,8.10
2023-05-19T07:43:43.380Z,7.45
2023-05-19T07:46:12.982Z,9.05
2023-05-19T07:48:41.191Z,9.70
2023-05-19T07:51:10.320Z,12.52
2023-05-19T07:53:38.558Z,7.68
2023-05-19T07:56:07.122Z,12.15
2023-05-19T07:58:35.204Z,12.95
2023-05-19T08:01:03.364Z,9.57
2023-05-19T08:03:33.478Z,11.90
2023-05-19T08:06:01.691Z,6.88
2023-05-19T08:08:29.868Z,7.75
2023-05-19T08:10:58.039Z,7.25
2023-05-19T08:13:26.104Z,8.27
2023-05-19T08:15:59.553Z,10.93
2023-05-19T08:18:27.733Z,10.23
2023-05-19T08:20:57.317Z,7.53
2023-05-19T08:23:25.540Z,7.97
2023-05-19T08:25:53.637Z,6.53
2023-05-19T08:28:21.714Z,5.90
2023-05-19T08:30:51.051Z,5.80
2023-05-19T08:33:20.815Z,8.75
2023-05-19T08:35:48.945Z,7.65
2023-05-19T08:38:20.939Z,7.38
2023-05-19T08:40:49.434Z,7.30
2023-05-19T08:43:17.716Z,11.65
2023-05-19T08:45:46.864Z,9.10
2023-05-19T08:48:15.486Z,9.30
2023-05-19T08:50:43.682Z,8.27
2023-05-19T08:53:31.400Z,5.88
2023-05-19T08:56:04.169Z,5.93
2023-05-19T08:58:32.369Z,5.75
2023-05-19T09:01:00.617Z,6.97
2023-05-19T09:03:29.121Z,8.75
2023-05-19T09:05:57.661Z,6.50
2023-05-19T09:08:25.857Z,7.78
2023-05-19T09:10:53.947Z,5.72
2023-05-19T09:13:23.453Z,7.50
2023-05-19T09:15:52.492Z,6.15
2023-05-19T09:18:20.903Z,5.60
2023-05-19T09:20:49.008Z,8.10
2023-05-19T09:23:17.688Z,9.05
2023-05-19T09:25:49.683Z,5.30
2023-05-19T09:28:26.341Z,8.75
2023-05-19T09:31:01.187Z,12.00
2023-05-19T09:33:29.588Z,7.57
2023-05-19T09:35:57.712Z,10.75
2023-05-19T09:38:26.455Z,12.63
2023-05-19T09:40:54.596Z,13.82
2023-05-19T09:43:22.850Z,7.80
2023-05-19T09:45:56.203Z,6.45
2023-05-19T09:48:24.322Z,6.53
2023-05-19T09:50:53.246Z,5.13
2023-05-19T09:53:21.967Z,7.05
2023-05-19T09:55:50.087Z,6.70
2023-05-19T09:58:18.750Z,6.97
2023-05-19T10:00:47.012Z,4.65
2023-05-19T10:03:17.800Z,7.13
2023-05-19T10:05:46.098Z,7.85
2023-05-19T10:08:14.392Z,4.80
2023-05-19T10:10:44.060Z,6.68
2023-05-19T10:13:13.260Z,5.00
2023-05-19T10:15:57.146Z,9.60
2023-05-19T10:18:29.556Z,9.33
2023-05-19T10:20:58.835Z,9.57
2023-05-19T10:23:27.025Z,7.78
2023-05-19T10:25:57.250Z,11.18
2023-05-19T10:28:28.095Z,7.65
2023-05-19T10:30:57.886Z,12.85
2023-05-19T10:33:47.912Z,4.55
2023-05-19T10:36:29.330Z,7.30
2023-05-19T10:39:00.087Z,10.73
2023-05-19T10:41:29.962Z,8.60
2023-05-19T10:44:05.930Z,4.43
2023-05-19T10:46:34.130Z,7.90
2023-05-19T10:49:03.629Z,5.43
2023-05-19T10:51:32.557Z,8.57
2023-05-19T10:54:03.157Z,6.03
2023-05-19T10:56:33.810Z,4.85
2023-05-19T10:59:02.309Z,7.18
2023-05-19T11:01:33.255Z,4.18
2023-05-19T11:04:08.031Z,9.02
2023-05-19T11:06:37.930Z,10.27
2023-05-19T11:09:13.414Z,5.53
2023-05-19T11:11:46.559Z,8.02
2023-05-19T11:14:15.657Z,9.52
2023-05-19T11:16:45.949Z,5.97
2023-05-19T11:19:21.497Z,7.20
2023-05-19T11:24:37.698Z,9.10
2023-05-19T11:27:22.067Z,9.20
2023-05-19T11:29:50.268Z,8.63
2023-05-19T11:32:18.463Z,13.25
2023-05-19T11:34:48.398Z,6.80
2023-05-19T11:37:16.629Z,9.90
2023-05-19T11:39:46.264Z,7.38
2023-05-19T11:42:14.516Z,9.98
2023-05-19T11:44:42.893Z,8.27
2023-05-19T11:47:10.981Z,7.80
2023-05-19T11:49:39.349Z,9.02
2023-05-19T11:52:08.887Z,5.38
2023-05-19T11:54:37.425Z,8.32
2023-05-19T11:57:05.744Z,7.38
2023-05-19T11:59:35.789Z,8.40
2023-05-19T12:02:05.331Z,8.90
2023-05-19T12:04:33.496Z,7.75
2023-05-19T12:07:01.768Z,6.97
2023-05-19T12:09:31.542Z,6.88
2023-05-19T12:11:59.685Z,9.20
2023-05-19T12:14:27.964Z,10.25
2023-05-19T12:16:56.104Z,8.73
2023-05-19T12:19:25.893Z,9.65
2023-05-19T12:21:54.241Z,5.82
2023-05-19T12:24:22.412Z,7.53
2023-05-19T12:26:51.978Z,6.95
2023-05-19T12:29:20.370Z,5.50
2023-05-19T12:31:49.359Z,6.05
2023-05-19T12:34:17.822Z,6.78
2023-05-19T12:36:46.668Z,10.20
2023-05-19T12:39:15.517Z,7.03
2023-05-19T12:41:46.270Z,10.05
2023-05-19T12:44:18.602Z,8.55
2023-05-19T12:46:46.718Z,8.82
2023-05-19T12:49:14.906Z,8.15
2023-05-19T12:51:43.137Z,6.32
2023-05-19T12:54:11.315Z,7.10
2023-05-19T12:56:39.674Z,6.07
2023-05-19T12:59:07.934Z,8.95
2023-05-19T13:01:38.108Z,8.57
2023-05-19T13:04:06.887Z,7.95
2023-05-19T13:06:35.216Z,9.27
2023-05-19T13:09:03.371Z,8.73
2023-05-19T13:11:31.515Z,8.27
2023-05-19T13:13:59.782Z,6.50
2023-05-19T13:16:29.430Z,7.50
2023-05-19T13:18:59.533Z,9.15
2023-05-19T13:21:28.106Z,6.28
2023-05-19T13:23:56.246Z,7.88
2023-05-19T13:26:24.707Z,8.35
2023-05-19T13:28:52.879Z,5.93
2023-05-19T13:31:21.427Z,8.52
2023-05-19T13:33:49.871Z,7.53
2023-05-19T13:36:19.540Z,7.05
2023-05-19T13:38:47.639Z,6.35
2023-05-19T13:41:16.120Z,7.93
2023-05-19T13:43:44.286Z,6.00
2023-05-19T13:46:12.481Z,7.82
2023-05-19T13:48:40.718Z,6.53
2023-05-19T13:51:08.975Z,3.95
2023-05-19T13:53:39.223Z,5.90
2023-05-19T13:56:07.568Z,7.13
2023-05-19T13:58:35.636Z,7.05
2023-05-19T14:01:03.774Z,5.53
2023-05-19T14:03:32.008Z,4.15
2023-05-19T14:06:00.403Z,5.43
2023-05-19T14:08:28.601Z,8.30
2023-05-19T14:10:58.140Z,9.38
2023-05-19T14:13:33.028Z,7.13
2023-05-19T14:16:04.333Z,7.78
2023-05-19T14:18:32.570Z,11.85
2023-05-19T14:21:00.666Z,9.73
2023-05-19T14:23:30.321Z,13.98
2023-05-19T14:25:59.839Z,5.93
2023-05-19T14:28:28.069Z,9.45
2023-05-19T14:30:56.138Z,4.32
2023-05-19T14:33:24.268Z,7.60
2023-05-19T14:35:52.644Z,5.43
2023-05-19T14:38:20.730Z,6.97
2023-05-19T14:40:49.274Z,5.20
2023-05-19T14:43:18.789Z,10.45
2023-05-19T14:45:47.042Z,5.18
2023-05-19T14:48:15.255Z,17.10
2023-05-19T14:50:43.512Z,5.65
2023-05-19T14:53:11.848Z,5.93
2023-05-19T14:55:39.960Z,5.60
2023-05-19T14:58:19.674Z,10.05
2023-05-19T15:00:58.561Z,8.43
2023-05-19T15:03:26.721Z,4.85
2023-05-19T15:05:54.943Z,5.85
2023-05-19T15:08:23.494Z,4.85
2023-05-19T15:10:51.632Z,8.50
2023-05-19T15:13:21.601Z,6.30
2023-05-19T15:15:49.936Z,6.57
2023-05-19T15:18:19.641Z,6.57
2023-05-19T15:20:47.941Z,4.68
2023-05-19T15:23:16.142Z,7.13
2023-05-19T15:25:45.592Z,8.65
2023-05-19T15:28:13.727Z,5.55
2023-05-19T15:30:43.018Z,6.35
2023-05-19T15:33:11.872Z,7.15
2023-05-19T15:35:41.464Z,6.40
2023-05-19T15:38:09.578Z,6.65
2023-05-19T15:40:37.672Z,6.13
2023-05-19T15:43:05.808Z,5.35
2023-05-19T15:45:33.946Z,9.30
2023-05-19T15:48:02.106Z,5.88
2023-05-19T15:50:30.666Z,7.95
2023-05-19T15:53:00.233Z,6.60
2023-05-19T15:55:28.527Z,5.13
2023-05-19T15:57:56.906Z,4.30
2023-05-19T16:00:25.276Z,7.75
2023-05-19T16:02:53.497Z,3.85
2023-05-19T16:05:21.983Z,6.78
2023-05-19T16:07:50.142Z,6.20
2023-05-19T16:10:20.017Z,6.60
2023-05-19T16:12:48.195Z,5.60
2023-05-19T16:15:16.591Z,6.63
2023-05-19T16:17:44.796Z,7.68
2023-05-19T16:20:13.529Z,8.25
2023-05-19T16:22:41.784Z,5.57
2023-05-19T16:25:10.468Z,8.35
2023-05-19T16:27:39.922Z,4.78
2023-05-19T16:30:09.382Z,9.18
2023-05-19T16:32:37.645Z,6.82
2023-05-19T16:35:06.592Z,9.43
2023-05-19T16:37:34.912Z,5.47
2023-05-19T16:40:03.288Z,5.07
2023-05-19T16:42:32.032Z,4.00
2023-05-19T16:45:01.492Z,7.07
2023-05-19T16:47:29.667Z,5.15
2023-05-19T16:49:57.752Z,5.15
2023-05-19T16:52:25.874Z,6.93
2023-05-19T16:54:53.930Z,6.80
2023-05-19T16:57:22.128Z,6.10
2023-05-19T16:59:50.270Z,5.00
2023-05-19T17:02:19.856Z,6.63
2023-05-19T17:04:48.011Z,6.15
2023-05-19T17:07:16.258Z,8.38
2023-05-19T17:09:44.469Z,7.70
2023-05-19T17:12:13.376Z,9.02
2023-05-19T17:14:42.365Z,6.15
2023-05-19T17:17:10.881Z,9.38
2023-05-19T17:19:40.544Z,9.07
2023-05-19T17:22:08.960Z,8.18
2023-05-19T17:24:37.277Z,6.32
2023-05-19T17:27:06.135Z,5.60
2023-05-19T17:29:34.644Z,5.25
2023-05-19T17:32:05.823Z,6.07
2023-05-19T17:34:34.024Z,6.80
2023-05-19T17:37:03.614Z,6.03
2023-05-19T17:39:31.744Z,5.20
2023-05-19T17:41:59.918Z,8.18
2023-05-19T17:44:31.474Z,7.15
2023-05-19T17:47:03.870Z,4.88
2023-05-19T17:49:31.986Z,8.05
2023-05-19T17:52:00.706Z,6.18
2023-05-19T17:54:34.344Z,5.38
2023-05-19T17:57:03.405Z,7.97
2023-05-19T17:59:32.068Z,8.00
2023-05-19T18:02:00.846Z,11.23
2023-05-19T18:04:29.705Z,9.13
2023-05-19T18:06:57.989Z,8.40
2023-05-19T18:09:28.869Z,11.95
2023-05-19T18:12:02.162Z,9.75
2023-05-19T18:14:30.961Z,11.45
2023-05-19T18:16:59.182Z,9.70
2023-05-19T18:19:27.382Z,8.15
2023-05-19T18:21:55.574Z,11.40
2023-05-19T18:24:24.402Z,8.88
2023-05-19T18:26:52.638Z,13.43
2023-05-19T18:29:22.310Z,11.18
2023-05-19T18:31:50.783Z,17.42
2023-05-19T18:34:19.064Z,12.55
2023-05-19T18:36:47.409Z,14.40
2023-05-19T18:39:15.693Z,11.40
2023-05-19T18:41:43.829Z,12.02
2023-05-19T18:44:12.452Z,11.68
2023-05-19T18:46:42.078Z,6.30
2023-05-19T18:49:11.727Z,8.13
2023-05-19T18:51:40.172Z,10.43
2023-05-19T18:54:08.606Z,7.40
2023-05-19T18:56:36.923Z,10.27
2023-05-19T18:59:05.151Z,7.57
2023-05-19T19:01:33.265Z,8.30
2023-05-19T19:04:03.049Z,10.15
2023-05-19T19:06:31.884Z,7.97
2023-05-19T19:08:59.998Z,7.50
2023-05-19T19:11:28.207Z,8.00
2023-05-19T19:13:56.774Z,8.43
2023-05-19T19:16:25.061Z,14.27
2023-05-19T19:18:53.400Z,4.95
2023-05-19T19:21:24.128Z,8.70
2023-05-19T19:23:53.081Z,11.98
2023-05-19T19:26:21.831Z,6.35
2023-05-19T19:28:49.914Z,9.30
2023-05-19T19:31:18.095Z,4.90
2023-05-19T19:33:46.537Z,7.43
2023-05-19T19:36:14.652Z,9.75
2023-05-19T19:38:44.184Z,7.32
2023-05-19T19:41:12.410Z,8.77
2023-05-19T19:43:40.512Z,9.45
2023-05-19T19:46:09.212Z,6.95
2023-05-19T19:48:37.377Z,6.80
2023-05-19T19:51:05.669Z,10.00
2023-05-19T19:53:33.892Z,6.18
2023-05-19T19:56:04.401Z,4.88
2023-05-19T19:58:32.580Z,8.80
2023-05-19T20:01:01.116Z,11.80
2023-05-19T20:03:29.457Z,7.65
2023-05-19T20:05:57.897Z,4.18
2023-05-19T20:08:26.323Z,6.72
2023-05-19T20:10:54.562Z,5.63
2023-05-19T20:13:24.408Z,5.88
2023-05-19T20:15:52.732Z,9.43
2023-05-19T20:18:20.927Z,7.10
2023-05-19T20:20:49.131Z,10.10
2023-05-19T20:23:17.226Z,9.52
2023-05-19T20:26:02.364Z,10.00
2023-05-19T20:28:35.843Z,8.73
2023-05-19T20:31:03.995Z,14.00
2023-05-19T20:33:32.437Z,12.88
2023-05-19T20:36:00.886Z,14.00
2023-05-19T20:38:29.175Z,12.30
2023-05-19T20:40:57.241Z,12.02
2023-05-19T20:43:25.562Z,15.25
2023-05-19T20:45:55.081Z,20.70
2023-05-19T20:48:23.694Z,23.23
2023-05-19T20:50:51.820Z,20.67
2023-05-19T20:53:21.489Z,20.35
2023-05-19T20:55:49.572Z,19.63
2023-05-19T20:58:17.720Z,15.85
2023-05-19T21:00:45.855Z,16.85
2023-05-19T21:03:15.431Z,16.85
2023-05-19T21:05:43.556Z,21.35
2023-05-19T21:08:12.976Z,23.58
2023-05-19T21:10:41.694Z,22.05
2023-05-19T21:13:09.744Z,19.90
2023-05-19T21:15:37.844Z,22.77
2023-05-19T21:18:05.934Z,25.13
2023-05-19T21:20:35.722Z,20.27
2023-05-19T21:23:03.902Z,19.15
2023-05-19T21:25:32.146Z,21.92
2023-05-19T21:28:00.389Z,17.17
2023-05-19T21:30:28.496Z,14.20
2023-05-19T21:32:57.225Z,14.82
2023-05-19T21:35:25.484Z,19.40
2023-05-19T21:37:55.769Z,13.25
2023-05-19T21:40:24.029Z,11.60
2023-05-19T21:42:52.188Z,11.13
2023-05-19T21:45:20.362Z,13.07
2023-05-19T21:47:48.695Z,13.32
2023-05-19T21:50:17.508Z,8.07
2023-05-19T21:52:45.666Z,9.60
2023-05-19T21:55:15.069Z,8.18
2023-05-19T21:57:43.179Z,5.63
2023-05-19T22:00:13.325Z,5.20
2023-05-19T22:02:43.131Z,6.78
2023-05-19T22:05:11.821Z,7.95
2023-05-19T22:07:39.970Z,7.35
2023-05-19T22:10:08.922Z,5.30
2023-05-19T22:12:38.363Z,11.25
2023-05-19T22:15:07.562Z,6.72
2023-05-19T22:17:35.685Z,7.15
2023-05-19T22:20:04.069Z,10.27
2023-05-19T22:22:32.135Z,8.65
2023-05-19T22:25:00.221Z,5.85
2023-05-19T22:27:28.465Z,8.38
2023-05-19T22:29:59.698Z,8.73
2023-05-19T22:32:27.885Z,7.90
2023-05-19T22:34:56.106Z,6.13
2023-05-19T22:37:24.210Z,8.43
2023-05-19T22:39:52.309Z,8.35
2023-05-19T22:42:20.437Z,7.88
2023-05-19T22:44:48.822Z,7.68
2023-05-19T22:47:18.326Z,6.13
2023-05-19T22:49:46.464Z,6.80
2023-05-19T22:52:14.533Z,4.70
2023-05-19T22:54:42.721Z,6.97
2023-05-19T22:57:11.326Z,3.53
2023-05-19T22:59:40.016Z,4.82
2023-05-19T23:02:08.078Z,6.55
2023-05-19T23:04:37.696Z,4.07
2023-05-19T23:07:06.195Z,3.95
2023-05-19T23:09:34.274Z,5.03
2023-05-19T23:12:02.335Z,6.68
2023-05-19T23:14:31.591Z,5.82
2023-05-19T23:16:59.790Z,8.05
2023-05-19T23:19:29.223Z,4.35
2023-05-19T23:21:58.839Z,5.22
2023-05-19T23:24:26.995Z,8.02
2023-05-19T23:26:55.339Z,6.07
2023-05-19T23:29:23.518Z,6.82
2023-05-19T23:31:51.665Z,6.00
2023-05-19T23:34:19.769Z,6.95
2023-05-19T23:36:47.885Z,7.68
2023-05-19T23:39:17.372Z,4.85
2023-05-19T23:41:45.432Z,6.32
2023-05-19T23:44:13.566Z,5.10
2023-05-19T23:46:41.961Z,5.40
2023-05-19T23:49:10.114Z,4.55
2023-05-19T23:51:38.166Z,3.95
2023-05-19T23:54:06.423Z,6.57
2023-05-19T23:56:35.859Z,4.57
2023-05-19T23:59:03.955Z,8.10
